Time;durP1;ratioP1;P1;durP2;ratioP2;P2;SDS_P1;SDS_P2;PMS_P1;PMS_P2;Temp;Humidity;BMP_temperature;BMP_pressure;BME280_temperature;BME280_humidity;BME280_pressure;Samples;Min_cycle;Max_cycle;Signal;HPM_P1;HPM_P2
2021/08/08 00:01:52;;;;;;;7.57;3.35;;;;;;;21.71;67.19;99532.31;4953001;28;20424;-71
2021/08/08 00:04:18;;;;;;;7.53;3.05;;;;;;;21.70;67.43;99528.84;4939024;29;20028;-72
2021/08/08 00:06:43;;;;;;;5.35;3.15;;;;;;;21.70;67.69;99520.81;4948541;28;20485;-70
2021/08/08 00:09:09;;;;;;;7.97;3.83;;;;;;;21.70;67.68;99520.03;4970166;28;20397;-71
2021/08/08 00:11:35;;;;;;;10.32;3.40;;;;;;;21.71;67.72;99534.97;4952572;28;20114;-73
2021/08/08 00:14:01;;;;;;;8.40;3.88;;;;;;;21.71;67.37;99534.97;4952500;28;20061;-67
2021/08/08 00:16:28;;;;;;;7.68;3.65;;;;;;;21.71;67.45;99529.63;4948915;28;20071;-70
2021/08/08 00:18:54;;;;;;;6.15;2.75;;;;;;;21.70;67.31;99531.50;4950401;28;20079;-71
2021/08/08 00:21:19;;;;;;;9.75;3.20;;;;;;;21.71;67.60;99532.31;4942228;28;20074;-75
2021/08/08 00:23:45;;;;;;;10.60;3.55;;;;;;;21.70;67.50;99533.38;4950501;28;20048;-71
2021/08/08 00:26:10;;;;;;;7.13;3.00;;;;;;;21.70;67.15;99541.38;4968784;28;20167;-71
2021/08/08 00:28:36;;;;;;;7.60;3.10;;;;;;;21.70;67.03;99541.38;4939320;28;20051;-70
2021/08/08 00:31:01;;;;;;;10.13;3.45;;;;;;;21.69;67.22;99543.22;4944625;28;20567;-69
2021/08/08 00:33:27;;;;;;;8.55;3.38;;;;;;;21.68;67.00;99548.81;4948026;28;20480;-70
2021/08/08 00:35:52;;;;;;;8.05;3.75;;;;;;;21.67;67.23;99545.34;4951586;28;20462;-73
2021/08/08 00:38:18;;;;;;;5.28;3.13;;;;;;;21.67;66.94;99549.88;4958731;28;20041;-69
2021/08/08 00:40:43;;;;;;;5.70;3.00;;;;;;;21.65;66.90;99544.78;4958293;28;20031;-71
2021/08/08 00:43:10;;;;;;;9.73;3.67;;;;;;;21.65;66.95;99550.09;4959589;28;20027;-70
2021/08/08 00:45:36;;;;;;;5.43;3.13;;;;;;;21.64;67.10;99553.81;4960258;28;20478;-69
2021/08/08 00:48:01;;;;;;;9.98;4.05;;;;;;;21.65;67.21;99549.31;4955237;28;20043;-71
2021/08/08 00:50:27;;;;;;;7.35;2.95;;;;;;;21.64;67.05;99550.34;4957076;28;20050;-71
2021/08/08 00:52:52;;;;;;;7.50;3.00;;;;;;;21.63;66.84;99562.06;4958151;28;20042;-73
2021/08/08 00:55:18;;;;;;;6.68;2.90;;;;;;;21.62;66.60;99557.75;4960173;28;20027;-69
2021/08/08 00:57:44;;;;;;;5.85;3.22;;;;;;;21.61;66.80;99556.94;4958369;28;20362;-69
2021/08/08 01:00:10;;;;;;;6.47;2.92;;;;;;;21.61;66.55;99556.16;4951952;28;20035;-69
2021/08/08 01:02:46;;;;;;;5.53;3.08;;;;;;;21.58;66.73;99554.78;4955054;28;20062;-70
2021/08/08 01:05:15;;;;;;;5.15;3.15;;;;;;;21.59;66.67;99553.72;4957672;28;20041;-69
2021/08/08 01:07:48;;;;;;;7.70;3.25;;;;;;;21.57;66.17;99553.16;4959794;28;20053;-70
2021/08/08 01:10:13;;;;;;;4.93;2.88;;;;;;;21.58;66.53;99554.78;4939597;28;20444;-71
2021/08/08 01:12:40;;;;;;;7.60;3.22;;;;;;;21.58;66.49;99567.31;4961164;28;20121;-69
2021/08/08 01:15:07;;;;;;;7.28;3.28;;;;;;;21.57;66.54;99557.69;4957604;28;20110;-69
2021/08/08 01:17:34;;;;;;;5.85;2.95;;;;;;;21.57;66.53;99566.50;4943917;28;20505;-70
2021/08/08 01:20:07;;;;;;;8.05;3.45;;;;;;;21.56;66.04;99556.88;4957661;28;20057;-73
2021/08/08 01:22:34;;;;;;;7.68;3.10;;;;;;;21.56;66.49;99566.75;4960715;28;20492;-69
2021/08/08 01:25:05;;;;;;;5.55;3.03;;;;;;;21.56;66.53;99559.53;4957467;28;20047;-70
2021/08/08 01:27:32;;;;;;;6.40;3.40;;;;;;;21.55;66.36;99565.94;4959621;28;21638;-69
2021/08/08 01:29:58;;;;;;;7.88;3.30;;;;;;;21.55;65.93;99559.78;4958723;28;20182;-72
2021/08/08 01:32:24;;;;;;;5.22;2.95;;;;;;;21.52;65.95;99561.88;4956151;28;20043;-70
2021/08/08 01:34:50;;;;;;;6.40;3.22;;;;;;;21.53;66.05;99566.16;4951771;28;20481;-70
2021/08/08 01:37:20;;;;;;;5.70;3.60;;;;;;;21.51;66.03;99565.59;4956641;28;20168;-69
2021/08/08 01:39:52;;;;;;;4.80;3.30;;;;;;;21.52;65.87;99561.88;4958058;28;20031;-69
2021/08/08 01:42:18;;;;;;;5.47;3.13;;;;;;;21.52;66.04;99567.22;4958716;28;20035;-69
2021/08/08 01:44:49;;;;;;;6.95;2.72;;;;;;;21.52;65.81;99561.06;4957074;28;20509;-69
2021/08/08 01:47:19;;;;;;;5.78;2.95;;;;;;;21.51;65.75;99565.59;4959427;28;20034;-70
2021/08/08 01:49:48;;;;;;;5.30;3.10;;;;;;;21.51;65.98;99565.59;4956984;28;20032;-71
2021/08/08 01:52:14;;;;;;;4.22;3.20;;;;;;;21.52;66.08;99566.41;4956411;28;20038;-69
2021/08/08 01:54:40;;;;;;;6.28;3.10;;;;;;;21.50;65.76;99566.66;4956306;28;20039;-69
2021/08/08 01:57:08;;;;;;;4.90;3.10;;;;;;;21.51;65.80;99559.47;4956167;28;20073;-70
2021/08/08 01:59:33;;;;;;;4.97;3.08;;;;;;;21.50;65.57;99569.31;4954312;28;20042;-69
2021/08/08 02:02:13;;;;;;;4.40;3.03;;;;;;;21.47;65.63;99575.16;4929020;28;20036;-69
2021/08/08 02:04:40;;;;;;;4.32;2.90;;;;;;;21.49;65.85;99567.72;4958695;28;20035;-73
2021/08/08 02:07:14;;;;;;;4.80;2.55;;;;;;;21.47;65.69;99569.81;4966997;28;20031;-69
2021/08/08 02:09:42;;;;;;;5.05;2.88;;;;;;;21.49;65.45;99575.72;4969844;28;20781;-69
2021/08/08 02:12:07;;;;;;;5.55;3.05;;;;;;;21.48;65.45;99576.75;4969236;28;20130;-70
2021/08/08 02:14:34;;;;;;;4.78;2.67;;;;;;;21.48;65.31;99576.75;4962518;28;20494;-69
2021/08/08 02:17:00;;;;;;;4.75;2.53;;;;;;;21.49;65.56;99569.56;4964136;28;20027;-69
2021/08/08 02:19:25;;;;;;;4.60;2.75;;;;;;;21.48;65.65;99566.09;4970347;28;20038;-69
2021/08/08 02:21:51;;;;;;;5.47;2.70;;;;;;;21.49;65.37;99572.22;4970487;28;20848;-71
2021/08/08 02:24:16;;;;;;;5.65;2.92;;;;;;;21.48;65.20;99583.97;4969237;28;20111;-69
2021/08/08 02:26:42;;;;;;;3.83;2.53;;;;;;;21.47;65.07;99577.81;4952996;28;20513;-70
2021/08/08 02:29:08;;;;;;;6.43;2.70;;;;;;;21.47;65.32;99580.47;4969536;28;20057;-71
2021/08/08 02:31:39;;;;;;;3.40;2.22;;;;;;;21.45;65.04;99579.88;4961580;28;20143;-74
2021/08/08 02:34:06;;;;;;;4.65;2.75;;;;;;;21.47;65.34;99579.66;4952203;28;20043;-70
2021/08/08 02:36:31;;;;;;;4.35;2.95;;;;;;;21.45;65.10;99585.22;4933729;28;20058;-70
2021/08/08 02:38:56;;;;;;;5.10;2.80;;;;;;;21.45;65.27;99587.06;4951029;28;20568;-69
2021/08/08 02:41:22;;;;;;;7.13;3.28;;;;;;;21.46;64.93;99581.53;4951224;28;20055;-70
2021/08/08 02:43:47;;;;;;;4.68;2.78;;;;;;;21.45;65.16;99587.88;4951599;28;20038;-70
2021/08/08 02:46:13;;;;;;;4.07;2.45;;;;;;;21.45;65.01;99587.06;4951255;28;20064;-70
2021/08/08 02:48:39;;;;;;;3.70;2.67;;;;;;;21.44;64.86;99580.94;4951619;28;20054;-70
2021/08/08 02:51:04;;;;;;;4.80;2.60;;;;;;;21.45;65.09;99592.41;4955270;28;20039;-70
2021/08/08 02:53:30;;;;;;;4.82;2.90;;;;;;;21.45;64.64;99589.75;4954871;28;20039;-72
2021/08/08 02:55:55;;;;;;;4.40;2.55;;;;;;;21.42;64.79;99596.38;4955112;28;20027;-72
2021/08/08 02:58:21;;;;;;;3.22;2.10;;;;;;;21.44;64.94;99596.94;4954864;28;20054;-71
2021/08/08 03:00:46;;;;;;;3.33;2.60;;;;;;;21.45;64.64;99600.41;4953130;28;20046;-72
2021/08/08 03:03:12;;;;;;;3.75;2.55;;;;;;;21.44;65.06;99604.94;4938122;29;20093;-70
2021/08/08 03:05:38;;;;;;;5.60;2.45;;;;;;;21.42;64.76;99591.03;4957093;28;20039;-71
2021/08/08 03:08:04;;;;;;;3.40;2.20;;;;;;;21.43;64.78;99600.66;4970844;28;20508;-75
2021/08/08 03:10:29;;;;;;;3.55;2.30;;;;;;;21.42;64.89;99604.38;4967666;28;20031;-70
2021/08/08 03:12:55;;;;;;;3.72;2.40;;;;;;;21.43;64.75;99603.31;4971284;28;20274;-69
2021/08/08 03:15:20;;;;;;;4.20;2.53;;;;;;;21.43;64.54;99607.84;4967555;28;20035;-73
2021/08/08 03:17:46;;;;;;;3.45;2.20;;;;;;;21.43;64.99;99607.84;4953916;28;20035;-69
2021/08/08 03:20:11;;;;;;;3.60;2.33;;;;;;;21.42;64.52;99606.22;4941583;29;20077;-70
2021/08/08 03:22:37;;;;;;;4.00;2.30;;;;;;;21.41;64.80;99607.28;4969289;28;20090;-71
2021/08/08 03:25:03;;;;;;;4.78;2.20;;;;;;;21.42;64.68;99600.91;4960199;28;20461;-71
2021/08/08 03:27:31;;;;;;;3.80;2.15;;;;;;;21.42;64.89;99608.91;4934081;29;20039;-71
2021/08/08 03:29:56;;;;;;;3.63;2.60;;;;;;;21.41;64.69;99599.28;4937818;29;20481;-71
2021/08/08 03:32:22;;;;;;;3.50;2.00;;;;;;;21.41;64.49;99608.09;4954134;29;20043;-69
2021/08/08 03:34:47;;;;;;;3.80;2.17;;;;;;;21.41;64.69;99601.94;4936983;28;20054;-71
2021/08/08 03:37:12;;;;;;;3.15;2.25;;;;;;;21.41;64.73;99610.75;4955086;29;20047;-70
2021/08/08 03:39:38;;;;;;;3.17;2.20;;;;;;;21.41;64.73;99604.63;4953934;28;20038;-77
2021/08/08 03:42:03;;;;;;;3.95;2.00;;;;;;;21.40;64.63;99611.00;4953746;28;20031;-69
2021/08/08 03:44:29;;;;;;;3.30;2.20;;;;;;;21.40;64.73;99605.66;4954474;28;20401;-73
2021/08/08 03:46:54;;;;;;;3.35;2.00;;;;;;;21.40;64.52;99611.81;4953404;28;20032;-70
2021/08/08 03:49:20;;;;;;;3.85;2.42;;;;;;;21.39;64.42;99610.19;4954207;28;20031;-70
2021/08/08 03:51:45;;;;;;;2.63;2.10;;;;;;;21.38;64.72;99600.56;4954200;28;20421;-70
2021/08/08 03:54:11;;;;;;;3.70;1.90;;;;;;;21.40;64.51;99611.00;4953207;28;20385;-70
2021/08/08 03:56:36;;;;;;;2.92;2.03;;;;;;;21.39;64.70;99615.53;4953916;28;20053;-69
2021/08/08 03:59:02;;;;;;;2.67;1.90;;;;;;;21.39;64.27;99612.84;4952491;28;20051;-71
2021/08/08 04:01:27;;;;;;;2.97;2.10;;;;;;;21.39;64.66;99625.38;4950845;28;20046;-69
2021/08/08 04:03:53;;;;;;;3.13;1.92;;;;;;;21.39;64.54;99620.06;4952543;28;20035;-69
2021/08/08 04:06:18;;;;;;;3.58;1.73;;;;;;;21.38;64.58;99615.78;4960153;28;20069;-69
2021/08/08 04:08:44;;;;;;;3.00;1.88;;;;;;;21.38;64.49;99626.44;4943661;29;20202;-69
2021/08/08 04:11:13;;;;;;;3.83;2.15;;;;;;;21.37;64.27;99622.97;4965523;28;20031;-70
2021/08/08 04:13:39;;;;;;;3.53;1.88;;;;;;;21.38;64.11;99624.59;4962704;28;20489;-76
2021/08/08 04:16:05;;;;;;;2.22;1.60;;;;;;;21.37;64.23;99627.50;4946433;28;20077;-70
2021/08/08 04:18:30;;;;;;;2.55;1.55;;;;;;;21.37;64.60;99632.81;4964694;28;20492;-70
2021/08/08 04:20:56;;;;;;;2.20;1.55;;;;;;;21.37;64.32;99633.63;4962094;28;20093;-69
2021/08/08 04:23:21;;;;;;;2.58;1.80;;;;;;;21.37;64.55;99640.81;4966930;28;20672;-69
2021/08/08 04:25:47;;;;;;;5.13;1.90;;;;;;;21.37;64.30;99641.63;4943743;29;20378;-69
2021/08/08 04:28:12;;;;;;;2.95;1.63;;;;;;;21.36;64.63;99645.34;4965915;28;20039;-70
2021/08/08 04:30:38;;;;;;;2.88;1.65;;;;;;;21.36;64.19;99656.03;4963177;28;20433;-69
2021/08/08 04:33:04;;;;;;;2.45;1.80;;;;;;;21.35;64.63;99646.41;4961785;28;20129;-69
2021/08/08 04:35:31;;;;;;;3.65;1.80;;;;;;;21.37;64.46;99656.84;4936272;29;20067;-70
2021/08/08 04:37:57;;;;;;;3.38;1.85;;;;;;;21.36;64.34;99658.69;4953200;28;20039;-69
2021/08/08 04:40:24;;;;;;;2.90;2.05;;;;;;;21.35;64.18;99651.75;4952168;28;20035;-69
2021/08/08 04:42:49;;;;;;;1.90;1.52;;;;;;;21.34;64.08;99658.13;4936305;29;20043;-70
2021/08/08 04:45:15;;;;;;;3.00;1.60;;;;;;;21.34;64.22;99663.47;4953140;28;20061;-69
2021/08/08 04:47:40;;;;;;;2.33;1.67;;;;;;;21.34;64.46;99662.66;4953382;28;20035;-70
2021/08/08 04:50:07;;;;;;;2.38;1.50;;;;;;;21.34;64.11;99668.78;4952892;28;20514;-70
2021/08/08 04:52:38;;;;;;;3.28;1.70;;;;;;;21.34;64.10;99671.47;4953677;28;20039;-69
2021/08/08 04:55:05;;;;;;;2.00;1.40;;;;;;;21.34;64.35;99676.78;4952279;28;20035;-70
2021/08/08 04:57:31;;;;;;;2.38;1.73;;;;;;;21.33;63.96;99664.50;4953648;28;20031;-70
2021/08/08 04:59:56;;;;;;;2.88;1.50;;;;;;;21.34;64.35;99686.66;4952803;28;20061;-69
2021/08/08 05:02:22;;;;;;;1.60;1.30;;;;;;;21.34;64.00;99686.66;4939614;28;20754;-70
2021/08/08 05:04:47;;;;;;;2.10;1.52;;;;;;;21.33;64.29;99680.50;4952248;28;20477;-70
2021/08/08 05:07:13;;;;;;;2.08;1.50;;;;;;;21.33;64.28;99699.19;4936302;28;20030;-70
2021/08/08 05:09:39;;;;;;;1.98;1.40;;;;;;;21.33;64.19;99693.84;4968930;28;20035;-71
2021/08/08 05:12:07;;;;;;;2.58;1.52;;;;;;;21.33;64.07;99701.03;4947367;28;20525;-69
2021/08/08 05:14:33;;;;;;;2.03;1.50;;;;;;;21.32;63.97;99705.56;4968835;28;20035;-69
2021/08/08 05:16:59;;;;;;;2.42;1.40;;;;;;;21.32;63.88;99702.91;4965697;28;20027;-69
2021/08/08 05:19:25;;;;;;;2.13;1.40;;;;;;;21.32;64.02;99705.56;4958102;28;20031;-69
2021/08/08 05:21:50;;;;;;;1.77;1.30;;;;;;;21.32;63.97;99715.44;4967331;28;20065;-70
2021/08/08 05:24:18;;;;;;;2.35;1.50;;;;;;;21.33;64.00;99719.72;4966343;28;20081;-70
2021/08/08 05:26:43;;;;;;;2.42;1.60;;;;;;;21.31;63.62;99711.13;4969054;28;20130;-69
2021/08/08 05:29:09;;;;;;;1.73;1.30;;;;;;;21.32;63.72;99715.44;4964671;28;20125;-70
2021/08/08 05:31:34;;;;;;;1.95;1.40;;;;;;;21.31;63.99;99705.81;4968402;28;20030;-69
2021/08/08 05:34:00;;;;;;;2.50;1.45;;;;;;;21.31;64.00;99714.63;4941666;29;20061;-71
2021/08/08 05:36:25;;;;;;;2.80;1.40;;;;;;;21.31;63.68;99719.13;4951883;28;20054;-70
2021/08/08 05:38:51;;;;;;;2.08;1.40;;;;;;;21.31;63.69;99719.13;4951940;28;20047;-70
2021/08/08 05:41:16;;;;;;;2.17;1.40;;;;;;;21.30;63.74;99723.63;4952585;29;20422;-70
2021/08/08 05:43:42;;;;;;;1.65;1.25;;;;;;;21.29;64.00;99724.69;4934796;29;20415;-70
2021/08/08 05:46:07;;;;;;;2.28;1.20;;;;;;;21.30;63.89;99736.97;4951742;28;20031;-69
2021/08/08 05:48:32;;;;;;;1.90;1.40;;;;;;;21.30;63.88;99728.97;4934973;29;20027;-70
2021/08/08 05:50:58;;;;;;;1.98;1.27;;;;;;;21.29;63.64;99732.69;4952389;28;20035;-70
2021/08/08 05:53:23;;;;;;;1.98;1.30;;;;;;;21.30;63.60;99736.16;4951486;28;20098;-69
2021/08/08 05:55:49;;;;;;;1.92;1.38;;;;;;;21.29;63.63;99738.00;4934627;29;20043;-71
2021/08/08 05:58:15;;;;;;;1.85;1.27;;;;;;;21.29;63.77;99737.22;4952587;28;20047;-69
2021/08/08 06:00:41;;;;;;;2.55;1.40;;;;;;;21.29;63.72;99745.22;4946857;28;20854;-70
2021/08/08 06:03:11;;;;;;;1.52;1.23;;;;;;;21.29;63.67;99737.22;4944084;28;20479;-69
2021/08/08 06:05:38;;;;;;;2.10;1.40;;;;;;;21.29;63.39;99739.88;4955858;28;20180;-70
2021/08/08 06:08:05;;;;;;;2.17;1.20;;;;;;;21.29;63.67;99742.53;4967192;28;20034;-72
2021/08/08 06:10:30;;;;;;;2.53;1.10;;;;;;;21.27;63.37;99748.13;4964913;28;20548;-69
2021/08/08 06:12:56;;;;;;;1.67;1.10;;;;;;;21.29;63.95;99758.53;4967840;28;20030;-70
2021/08/08 06:15:21;;;;;;;1.50;1.08;;;;;;;21.28;63.59;99748.94;4964025;28;20031;-72
2021/08/08 06:17:47;;;;;;;1.67;1.00;;;;;;;21.29;63.61;99766.53;4968149;28;20536;-69
2021/08/08 06:20:13;;;;;;;2.05;1.20;;;;;;;21.28;63.61;99764.94;4948629;28;20041;-71
2021/08/08 06:22:38;;;;;;;1.88;1.30;;;;;;;21.27;63.48;99772.13;4966203;28;20038;-69
2021/08/08 06:25:04;;;;;;;3.25;1.10;;;;;;;21.28;63.69;99765.75;4949542;28;20392;-69
2021/08/08 06:27:30;;;;;;;2.08;1.20;;;;;;;21.27;63.82;99773.97;4964342;28;20484;-69
2021/08/08 06:29:55;;;;;;;1.92;1.10;;;;;;;21.27;63.54;99773.97;4964210;28;20145;-73
2021/08/08 06:32:21;;;;;;;2.50;1.08;;;;;;;21.27;63.56;99771.31;4943934;28;20077;-70
2021/08/08 06:34:46;;;;;;;2.40;1.15;;;;;;;21.27;63.80;99780.13;4951933;28;20047;-71
2021/08/08 06:37:12;;;;;;;2.88;1.00;;;;;;;21.26;63.69;99783.84;4948387;28;20431;-69
2021/08/08 06:39:37;;;;;;;1.70;1.08;;;;;;;21.27;63.81;99789.97;4948453;28;20118;-69
2021/08/08 06:42:03;;;;;;;2.50;1.17;;;;;;;21.27;63.52;99793.47;4948503;28;20035;-71
2021/08/08 06:44:28;;;;;;;1.73;1.10;;;;;;;21.27;63.85;99796.13;4948274;29;20106;-70
2021/08/08 06:46:55;;;;;;;2.25;1.17;;;;;;;21.27;63.80;99800.66;4947990;28;20039;-72
2021/08/08 06:49:20;;;;;;;1.83;1.15;;;;;;;21.27;63.88;99795.31;4948500;28;20045;-70
2021/08/08 06:51:46;;;;;;;2.03;1.00;;;;;;;21.27;63.87;99796.13;4948062;28;20047;-73
2021/08/08 06:54:14;;;;;;;1.60;1.02;;;;;;;21.28;63.84;99799.59;4947812;28;20047;-71
2021/08/08 06:56:40;;;;;;;1.10;0.90;;;;;;;21.27;63.91;99804.13;4948114;28;20043;-69
2021/08/08 06:59:05;;;;;;;2.15;1.10;;;;;;;21.27;63.75;99800.66;4948929;28;20417;-70
2021/08/08 07:01:31;;;;;;;1.25;0.90;;;;;;;21.28;64.08;99808.41;4911536;29;20048;-71
2021/08/08 07:03:56;;;;;;;3.10;1.13;;;;;;;21.28;63.80;99821.75;4946517;28;20078;-70
2021/08/08 07:06:22;;;;;;;6.60;1.20;;;;;;;21.27;63.84;99825.47;4958069;28;20049;-71
2021/08/08 07:08:47;;;;;;;1.40;1.00;;;;;;;21.28;63.94;99828.94;4951136;28;20505;-69
2021/08/08 07:11:13;;;;;;;2.33;1.10;;;;;;;21.28;64.02;99820.94;4966149;28;20498;-69
2021/08/08 07:13:39;;;;;;;2.25;1.08;;;;;;;21.28;64.02;99834.28;4964521;28;20031;-70
2021/08/08 07:16:06;;;;;;;2.67;1.20;;;;;;;21.28;63.90;99837.75;4959771;28;20031;-68
2021/08/08 07:18:31;;;;;;;2.13;1.00;;;;;;;21.28;64.17;99842.28;4949311;28;20515;-69
2021/08/08 07:20:57;;;;;;;3.53;1.20;;;;;;;21.27;64.32;99838.81;4934891;28;20034;-70
2021/08/08 07:23:22;;;;;;;1.88;0.93;;;;;;;21.28;64.27;99848.44;4949330;28;20042;-68
2021/08/08 07:25:48;;;;;;;2.80;1.10;;;;;;;21.28;64.48;99845.75;4950149;28;20027;-69
2021/08/08 07:28:13;;;;;;;6.45;0.95;;;;;;;21.29;64.25;99851.91;4931571;29;20039;-67
2021/08/08 07:30:39;;;;;;;3.40;1.02;;;;;;;21.29;64.18;99858.06;4931056;28;20494;-67
2021/08/08 07:33:04;;;;;;;2.08;0.90;;;;;;;21.29;64.56;99851.91;4913158;28;20039;-68
2021/08/08 07:35:30;;;;;;;2.80;0.93;;;;;;;21.29;64.62;99855.38;4949377;28;20492;-67
2021/08/08 07:37:55;;;;;;;3.38;1.10;;;;;;;21.29;64.26;99860.72;4918063;28;20035;-72
2021/08/08 07:40:21;;;;;;;2.03;0.98;;;;;;;21.29;64.57;99858.06;4954910;28;20307;-73
2021/08/08 07:42:48;;;;;;;2.33;1.00;;;;;;;21.30;64.47;99873.00;4953284;28;20074;-69
2021/08/08 07:45:14;;;;;;;5.10;0.93;;;;;;;21.30;64.33;99874.88;4954880;28;20082;-67
2021/08/08 07:47:40;;;;;;;3.03;1.13;;;;;;;21.30;64.17;99874.88;4955055;28;20042;-68
2021/08/08 07:50:05;;;;;;;2.63;1.00;;;;;;;21.30;64.32;99885.53;4954303;28;20377;-67
2021/08/08 07:52:31;;;;;;;5.05;1.33;;;;;;;21.30;64.06;99880.22;4961933;28;20677;-68
2021/08/08 07:54:56;;;;;;;3.95;1.20;;;;;;;21.29;64.35;99887.41;4969302;28;20168;-69
2021/08/08 07:57:22;;;;;;;3.60;1.20;;;;;;;21.29;64.78;99884.72;4963040;28;20051;-68
2021/08/08 07:59:47;;;;;;;7.25;1.33;;;;;;;21.29;64.72;99887.41;4942900;29;20544;-69
2021/08/08 08:02:12;;;;;;;11.30;2.10;;;;;;;21.29;64.54;99895.41;4953205;28;20428;-69
2021/08/08 08:04:38;;;;;;;7.68;1.70;;;;;;;21.29;65.02;99889.25;4952377;28;20090;-67
2021/08/08 08:07:03;;;;;;;7.47;1.30;;;;;;;21.29;65.17;99895.41;4950688;28;20087;-67
2021/08/08 08:09:29;;;;;;;3.28;1.35;;;;;;;21.30;65.22;99897.03;4953338;28;20035;-68
2021/08/08 08:11:54;;;;;;;5.50;1.17;;;;;;;21.29;64.87;99898.06;4953108;28;20034;-69
2021/08/08 08:14:20;;;;;;;2.83;1.00;;;;;;;21.30;65.33;99898.88;4954299;28;20043;-74
2021/08/08 08:16:45;;;;;;;8.93;1.60;;;;;;;21.31;64.95;99906.69;4940358;29;20050;-70
2021/08/08 08:19:11;;;;;;;3.83;1.08;;;;;;;21.30;65.16;99906.88;4959364;28;20038;-69
2021/08/08 08:21:36;;;;;;;2.53;1.15;;;;;;;21.30;65.04;99907.69;4955562;28;20059;-66
2021/08/08 08:24:02;;;;;;;2.22;1.00;;;;;;;21.30;64.66;99910.38;4921464;28;20047;-68
2021/08/08 08:26:28;;;;;;;5.00;1.40;;;;;;;21.30;64.93;99915.69;4937167;29;20039;-69
2021/08/08 08:28:54;;;;;;;5.57;1.30;;;;;;;21.30;64.58;99914.88;4936623;29;20078;-74
2021/08/08 08:31:19;;;;;;;3.10;1.05;;;;;;;21.29;64.62;99930.06;4935446;29;20106;-66
2021/08/08 08:33:45;;;;;;;7.07;1.30;;;;;;;21.29;64.47;99926.59;4953515;28;20031;-66
2021/08/08 08:36:10;;;;;;;3.25;1.17;;;;;;;21.28;64.37;99925.78;4922979;29;20333;-69
2021/08/08 08:38:36;;;;;;;2.90;1.38;;;;;;;21.27;64.02;99924.16;4951641;28;20039;-67
2021/08/08 08:41:04;;;;;;;4.55;1.20;;;;;;;21.27;64.25;99934.84;4934687;29;20043;-70
2021/08/08 08:43:30;;;;;;;6.68;1.80;;;;;;;21.27;64.48;99934.03;4948452;28;20043;-71
2021/08/08 08:45:56;;;;;;;7.57;1.63;;;;;;;21.26;64.10;99935.88;4949473;28;20035;-67
2021/08/08 08:48:23;;;;;;;4.75;1.50;;;;;;;21.26;64.27;99946.53;4952144;28;20039;-69
2021/08/08 08:50:54;;;;;;;3.35;1.38;;;;;;;21.26;63.79;99945.72;4952712;28;20102;-67
2021/08/08 08:53:21;;;;;;;5.05;1.38;;;;;;;21.25;64.19;99946.78;4953450;28;20031;-68
2021/08/08 08:55:47;;;;;;;6.70;1.60;;;;;;;21.24;64.06;99943.25;4946383;28;20039;-69
2021/08/08 08:58:12;;;;;;;9.82;1.98;;;;;;;21.24;63.65;99948.59;4950118;28;20110;-67
2021/08/08 09:00:38;;;;;;;7.03;1.55;;;;;;;21.23;63.90;99950.47;4947022;28;20038;-69
2021/08/08 09:03:04;;;;;;;4.25;1.63;;;;;;;21.23;63.88;99960.31;4931922;29;20039;-68
2021/08/08 09:05:30;;;;;;;14.23;1.80;;;;;;;21.23;63.89;99968.31;4948982;28;20039;-69
2021/08/08 09:07:56;;;;;;;7.55;1.73;;;;;;;21.23;63.74;99973.66;4951362;28;20031;-68
2021/08/08 09:10:23;;;;;;;5.35;1.65;;;;;;;21.22;63.42;99972.03;4952546;28;20410;-67
2021/08/08 09:13:00;;;;;;;8.07;1.90;;;;;;;21.20;63.60;99974.13;4952115;28;20031;-66
2021/08/08 09:15:40;;;;;;;10.32;1.90;;;;;;;21.19;63.28;99983.97;4951349;28;20499;-69
2021/08/08 09:18:17;;;;;;;8.20;2.13;;;;;;;21.20;63.51;99985.59;4949242;28;20039;-66
2021/08/08 09:20:44;;;;;;;4.47;1.90;;;;;;;21.21;63.30;99986.41;4950925;28;20126;-67
2021/08/08 09:23:10;;;;;;;7.45;2.25;;;;;;;21.21;63.30;99989.06;4931748;29;20054;-70
2021/08/08 09:25:37;;;;;;;12.77;2.00;;;;;;;21.21;63.49;100000.56;4950098;28;20031;-66
2021/08/08 09:28:11;;;;;;;10.80;2.63;;;;;;;21.20;63.13;99982.13;4952892;28;20043;-73
2021/08/08 09:30:41;;;;;;;7.50;2.75;;;;;;;21.21;63.52;99986.41;4950962;28;20046;-67
2021/08/08 09:33:09;;;;;;;15.98;2.70;;;;;;;21.21;63.50;100003.22;4935040;28;20130;-69
2021/08/08 09:35:36;;;;;;;12.88;2.83;;;;;;;21.22;63.53;99998.69;4949923;28;20597;-65
2021/08/08 09:38:07;;;;;;;6.25;2.03;;;;;;;21.21;63.35;100000.56;4932710;28;20142;-61
2021/08/08 09:40:36;;;;;;;10.13;2.60;;;;;;;21.21;63.46;99997.06;4951924;28;20035;-61
2021/08/08 09:43:04;;;;;;;12.48;2.72;;;;;;;21.21;63.44;100003.22;4950051;28;20158;-62
2021/08/08 09:45:41;;;;;;;5.60;2.42;;;;;;;21.19;63.07;100005.31;4933210;29;20465;-61
2021/08/08 09:48:10;;;;;;;14.48;2.45;;;;;;;21.23;63.28;100019.00;4950243;28;20036;-63
2021/08/08 09:50:37;;;;;;;9.23;2.55;;;;;;;21.22;63.28;100015.50;4951908;28;20035;-61
2021/08/08 09:53:05;;;;;;;10.45;2.47;;;;;;;21.23;63.45;100016.31;4949737;28;20063;-64
2021/08/08 09:55:37;;;;;;;9.25;2.45;;;;;;;21.22;63.12;100020.03;4951885;28;20134;-61
2021/08/08 09:58:26;;;;;;;5.68;2.22;;;;;;;21.23;63.21;100027.00;4918211;29;20109;-65
2021/08/08 10:00:59;;;;;;;10.02;1.92;;;;;;;21.20;62.98;100032.78;4947797;28;20473;-63
2021/08/08 10:03:25;;;;;;;7.95;2.58;;;;;;;21.22;63.19;100028.84;4950705;28;20038;-64
2021/08/08 10:05:53;;;;;;;8.05;2.45;;;;;;;21.21;62.92;100035.22;4950822;28;20039;-65
2021/08/08 10:08:21;;;;;;;6.82;2.10;;;;;;;21.22;62.51;100025.38;4951532;28;20046;-63
2021/08/08 10:10:51;;;;;;;7.50;2.47;;;;;;;21.22;62.74;100046.72;4936436;29;20512;-61
2021/08/08 10:13:29;;;;;;;12.52;2.90;;;;;;;21.21;62.33;100034.41;4957990;28;20089;-63
2021/08/08 10:15:57;;;;;;;9.30;2.30;;;;;;;21.22;62.60;100039.53;4962023;28;20057;-63
2021/08/08 10:18:25;;;;;;;13.75;2.65;;;;;;;21.20;62.06;100038.13;4968540;28;20093;-63
2021/08/08 10:20:53;;;;;;;9.75;2.33;;;;;;;21.18;61.72;100046.34;4965968;28;20417;-63
2021/08/08 10:23:20;;;;;;;11.23;2.65;;;;;;;21.17;61.52;100047.41;4968477;28;20041;-63
2021/08/08 10:25:51;;;;;;;8.85;2.55;;;;;;;21.16;61.39;100039.63;4966260;28;20461;-63
2021/08/08 10:28:17;;;;;;;13.43;2.47;;;;;;;21.16;61.45;100034.28;4961750;28;20090;-64
2021/08/08 10:30:44;;;;;;;8.20;2.58;;;;;;;21.14;61.11;100045.16;4961405;28;20043;-64
2021/08/08 10:33:10;;;;;;;8.38;2.42;;;;;;;21.15;61.09;100051.34;4944907;28;20111;-63
2021/08/08 10:35:46;;;;;;;5.68;2.00;;;;;;;21.12;60.96;100047.25;4950191;28;20500;-63
2021/08/08 10:38:14;;;;;;;11.00;2.95;;;;;;;21.14;60.67;100050.50;4945071;28;20170;-63
2021/08/08 10:40:40;;;;;;;6.57;2.53;;;;;;;21.14;60.61;100050.50;4947660;28;20035;-63
2021/08/08 10:43:07;;;;;;;7.07;2.78;;;;;;;21.15;60.35;100049.47;4953127;28;20106;-63
2021/08/08 10:45:37;;;;;;;10.30;2.60;;;;;;;21.14;60.22;100053.16;4958070;28;20038;-63
2021/08/08 10:48:05;;;;;;;8.98;2.80;;;;;;;21.15;60.41;100070.00;4968229;28;20042;-63
2021/08/08 10:50:45;;;;;;;9.13;2.72;;;;;;;21.13;60.24;100058.72;4926446;28;20105;-63
2021/08/08 10:53:28;;;;;;;6.00;2.67;;;;;;;21.10;60.09;100049.31;4950038;28;20062;-63
2021/08/08 10:56:03;;;;;;;5.10;2.15;;;;;;;21.10;60.04;100049.31;4953222;28;20514;-63
2021/08/08 10:58:33;;;;;;;7.78;2.70;;;;;;;21.12;60.10;100052.56;4956796;28;20102;-63
2021/08/08 11:00:58;;;;;;;8.05;2.80;;;;;;;21.14;60.10;100063.00;4949078;28;20046;-63
2021/08/08 11:03:24;;;;;;;8.05;2.33;;;;;;;21.12;59.98;100052.56;4954249;28;20044;-64
2021/08/08 11:05:49;;;;;;;6.35;2.40;;;;;;;21.14;59.60;100069.16;4944438;28;20125;-63
2021/08/08 11:08:15;;;;;;;6.80;2.13;;;;;;;21.13;59.76;100067.53;4964781;28;20027;-63
2021/08/08 11:10:43;;;;;;;7.78;2.20;;;;;;;21.14;59.58;100065.69;4966892;28;20507;-63
2021/08/08 11:13:20;;;;;;;5.40;2.08;;;;;;;21.11;59.45;100072.28;4952845;28;20142;-63
2021/08/08 11:15:47;;;;;;;7.20;2.55;;;;;;;21.13;59.00;100075.53;4966325;28;20677;-63
2021/08/08 11:18:13;;;;;;;6.57;2.22;;;;;;;21.14;59.04;100073.69;4970654;28;20030;-63
2021/08/08 11:20:39;;;;;;;6.80;2.72;;;;;;;21.14;59.02;100077.16;4967079;28;20034;-63
2021/08/08 11:23:04;;;;;;;4.85;2.22;;;;;;;21.13;59.04;100094.19;4970521;28;20031;-63
2021/08/08 11:25:42;;;;;;;6.78;2.30;;;;;;;21.09;59.11;100093.03;4933969;28;20031;-64
2021/08/08 11:28:09;;;;;;;5.35;2.03;;;;;;;21.12;58.84;100091.75;4952881;28;20038;-63
2021/08/08 11:30:45;;;;;;;4.38;2.20;;;;;;;21.08;58.61;100099.41;4967379;28;20552;-63